This is the latest recevied weather packets stored in our database for station/object HG6IQI-10. If no packets are shown the sender has not sent any weather packets the latest 10 day(s).
| Time | Temp. | Humidity | Pressure | Rain* | Wind** | Luminosity | Snow |
|---|---|---|---|---|---|---|---|
| 1777353485 | 7.78° C | 51% | 1021.6 hPa | - | - | - | - |
| 1777352584 | 5.56° C | 66% | 1021.5 hPa | - | - | - | - |
| 1777351685 | 3.33° C | 75% | 1021.4 hPa | - | - | - | - |
| 1777350784 | 2.22° C | 76% | 1021.3 hPa | - | - | - | - |
| 1777348987 | 1.11° C | 77% | 1021.1 hPa | - | - | - | - |
| 1777348087 | 1.11° C | 77% | 1020.9 hPa | - | - | - | - |
| 1777347186 | 1.11° C | 78% | 1020.9 hPa | - | - | - | - |
| 1777346286 | 1.11° C | 76% | 1020.9 hPa | - | - | - | - |
| 1777345386 | 1.11° C | 77% | 1021 hPa | - | - | - | - |
| 1777344486 | 1.11° C | 77% | 1021 hPa | - | - | - | - |
| 1777343586 | 1.67° C | 78% | 1020.9 hPa | - | - | - | - |
| 1777342686 | 1.67° C | 79% | 1020.9 hPa | - | - | - | - |
| 1777341786 | 1.11° C | 80% | 1020.8 hPa | - | - | - | - |
| 1777340886 | 1.67° C | 79% | 1020.8 hPa | - | - | - | - |
| 1777339986 | 1.67° C | 78% | 1020.8 hPa | - | - | - | - |
| 1777339086 | 1.67° C | 78% | 1020.9 hPa | - | - | - | - |
| 1777338186 | 2.22° C | 78% | 1020.9 hPa | - | - | - | - |
| 1777337286 | 2.22° C | 77% | 1020.8 hPa | - | - | - | - |
| 1777336385 | 2.22° C | 76% | 1020.7 hPa | - | - | - | - |
| 1777335485 | 2.78° C | 74% | 1020.8 hPa | - | - | - | - |
| 1777334585 | 2.78° C | 74% | 1020.7 hPa | - | - | - | - |
| 1777333685 | 2.78° C | 73% | 1020.7 hPa | - | - | - | - |
| 1777332785 | 3.33° C | 72% | 1020.7 hPa | - | - | - | - |
| 1777331885 | 3.33° C | 72% | 1020.7 hPa | - | - | - | - |
| 1777330985 | 3.33° C | 72% | 1020.7 hPa | - | - | - | - |
* Rain since midnight (hover to see other rain measurements)
** Current wind speed in m/s (hover to see current wind gust speed)